createdAt,value
2022-08-16T00:00:22.131Z,85.82
2022-08-16T00:02:53.139Z,84.10
2022-08-16T00:05:23.368Z,84.96
2022-08-16T00:07:56.369Z,86.88
2022-08-16T00:10:26.737Z,88.40
2022-08-16T00:12:57.300Z,90.80
2022-08-16T00:15:52.132Z,92.62
2022-08-16T00:18:22.216Z,96.84
2022-08-16T00:20:57.793Z,100.00
2022-08-16T00:23:34.900Z,100.00
2022-08-16T00:26:34.770Z,100.00
2022-08-16T00:28:57.489Z,100.00
2022-08-16T00:31:27.217Z,100.00
2022-08-16T00:34:18.597Z,100.00
2022-08-16T00:36:47.360Z,100.00
2022-08-16T00:39:16.786Z,100.00
2022-08-16T00:41:46.691Z,100.00
2022-08-16T00:44:15.541Z,100.00
2022-08-16T00:47:06.217Z,100.00
2022-08-16T00:49:39.686Z,100.00
2022-08-16T00:52:29.992Z,100.00
2022-08-16T00:54:59.041Z,100.00
2022-08-16T00:57:58.332Z,100.00
2022-08-16T01:00:19.764Z,100.00
2022-08-16T01:02:49.084Z,100.00
2022-08-16T01:05:19.541Z,100.00
2022-08-16T01:07:54.338Z,100.00
2022-08-16T01:10:32.137Z,100.00
2022-08-16T01:13:06.360Z,100.00
2022-08-16T01:15:35.798Z,100.00
2022-08-16T01:18:06.303Z,100.00
2022-08-16T01:20:42.107Z,100.00
2022-08-16T01:23:18.189Z,100.00
2022-08-16T01:25:59.770Z,100.00
2022-08-16T01:28:45.218Z,100.00
2022-08-16T01:31:15.763Z,100.00
2022-08-16T01:33:44.612Z,100.00
2022-08-16T01:36:13.299Z,100.00
2022-08-16T01:38:47.137Z,100.00
2022-08-16T01:41:30.065Z,100.00
2022-08-16T01:44:01.321Z,100.00
2022-08-16T01:46:39.593Z,100.00
2022-08-16T01:49:12.094Z,100.00
2022-08-16T01:51:41.807Z,100.00
2022-08-16T01:54:13.145Z,100.00
2022-08-16T01:56:43.281Z,100.00
2022-08-16T01:59:16.046Z,100.00
2022-08-16T02:01:52.568Z,100.00
2022-08-16T02:04:49.249Z,100.00
2022-08-16T02:07:11.397Z,100.00
2022-08-16T02:09:41.544Z,100.00
2022-08-16T02:12:49.560Z,100.00
2022-08-16T02:15:01.149Z,100.00
2022-08-16T02:17:29.215Z,100.00
2022-08-16T02:20:00.602Z,100.00
2022-08-16T02:22:35.930Z,100.00
2022-08-16T02:25:10.036Z,100.00
2022-08-16T02:27:41.625Z,100.00
2022-08-16T02:30:37.032Z,100.00
2022-08-16T02:33:03.871Z,100.00
2022-08-16T02:35:33.447Z,100.00
2022-08-16T02:38:08.699Z,100.00
2022-08-16T02:40:37.964Z,100.00
2022-08-16T02:43:07.897Z,100.00
2022-08-16T02:45:36.158Z,100.00
2022-08-16T02:48:29.947Z,100.00
2022-08-16T02:51:06.657Z,100.00
2022-08-16T02:53:40.972Z,100.00
2022-08-16T02:56:15.050Z,100.00
2022-08-16T02:58:45.249Z,100.00
2022-08-16T03:01:25.339Z,100.00
2022-08-16T03:04:41.159Z,100.00
2022-08-16T03:06:56.490Z,100.00
2022-08-16T03:09:28.874Z,100.00
2022-08-16T03:12:00.974Z,100.00
2022-08-16T03:14:32.849Z,100.00
2022-08-16T03:17:02.004Z,100.00
2022-08-16T03:19:46.828Z,100.00
2022-08-16T03:22:19.564Z,100.00
2022-08-16T03:25:00.892Z,100.00
2022-08-16T03:27:32.551Z,100.00
2022-08-16T03:30:17.274Z,100.00
2022-08-16T03:32:47.342Z,100.00
2022-08-16T03:35:17.924Z,100.00
2022-08-16T03:38:01.778Z,100.00
2022-08-16T03:40:33.496Z,100.00
2022-08-16T03:43:20.599Z,100.00
2022-08-16T03:45:52.931Z,100.00
2022-08-16T03:48:37.050Z,100.00
2022-08-16T03:51:12.513Z,100.00
2022-08-16T03:53:42.296Z,100.00
2022-08-16T03:56:18.757Z,100.00
2022-08-16T03:58:50.712Z,100.00
2022-08-16T04:01:24.311Z,100.00
2022-08-16T04:03:57.764Z,100.00
2022-08-16T04:06:26.064Z,100.00
2022-08-16T04:08:54.633Z,100.00
2022-08-16T04:11:23.694Z,100.00
2022-08-16T04:14:01.657Z,100.00
2022-08-16T04:16:42.041Z,100.00
2022-08-16T04:19:11.300Z,100.00
2022-08-16T04:21:47.411Z,100.00
2022-08-16T04:24:16.170Z,100.00
2022-08-16T04:26:46.143Z,100.00
2022-08-16T04:29:24.484Z,100.00
2022-08-16T04:31:57.960Z,100.00
2022-08-16T04:34:28.342Z,100.00
2022-08-16T04:36:58.074Z,100.00
2022-08-16T04:39:36.988Z,100.00
2022-08-16T04:42:14.868Z,100.00
2022-08-16T04:44:54.140Z,100.00
2022-08-16T04:47:32.851Z,100.00
2022-08-16T04:50:01.973Z,100.00
2022-08-16T04:52:43.155Z,100.00
2022-08-16T04:55:15.904Z,100.00
2022-08-16T04:57:44.692Z,100.00
2022-08-16T05:00:31.041Z,100.00
2022-08-16T05:03:07.121Z,100.00
2022-08-16T05:05:44.929Z,100.00
2022-08-16T05:08:29.916Z,100.00
2022-08-16T05:11:00.687Z,100.00
2022-08-16T05:13:40.334Z,100.00
2022-08-16T05:16:16.577Z,100.00
2022-08-16T05:18:51.425Z,100.00
2022-08-16T05:21:20.937Z,100.00
2022-08-16T05:23:51.607Z,100.00
2022-08-16T05:26:28.093Z,100.00
2022-08-16T05:28:57.828Z,100.00
2022-08-16T05:31:29.563Z,100.00
2022-08-16T05:34:01.193Z,100.00
2022-08-16T05:36:34.193Z,100.00
2022-08-16T05:39:07.839Z,100.00
2022-08-16T05:41:45.004Z,100.00
2022-08-16T05:44:23.532Z,100.00
2022-08-16T05:46:54.675Z,100.00
2022-08-16T05:49:38.580Z,100.00
2022-08-16T05:52:11.195Z,100.00
2022-08-16T05:54:46.577Z,100.00
2022-08-16T05:57:16.115Z,100.00
2022-08-16T05:59:45.539Z,100.00
2022-08-16T06:02:14.206Z,100.00
2022-08-16T06:04:45.126Z,100.00
2022-08-16T06:07:26.243Z,100.00
2022-08-16T06:09:58.213Z,100.00
2022-08-16T06:12:28.977Z,100.00
2022-08-16T06:14:59.805Z,100.00
2022-08-16T06:17:42.693Z,100.00
2022-08-16T06:20:18.181Z,98.28
2022-08-16T06:22:58.465Z,98.58
2022-08-16T06:25:36.628Z,96.55
2022-08-16T06:28:10.231Z,96.46
2022-08-16T06:30:45.015Z,93.83
2022-08-16T06:33:19.948Z,90.65
2022-08-16T06:35:55.042Z,91.61
2022-08-16T06:38:33.684Z,88.58
2022-08-16T06:41:05.467Z,87.21
2022-08-16T06:43:35.406Z,86.62
2022-08-16T06:46:05.618Z,88.11
2022-08-16T06:48:34.070Z,84.68
2022-08-16T06:51:05.828Z,81.43
2022-08-16T06:53:34.847Z,81.27
2022-08-16T06:56:13.863Z,80.27
2022-08-16T06:58:46.754Z,82.85
2022-08-16T07:01:15.944Z,82.96
2022-08-16T07:03:55.637Z,82.55
2022-08-16T07:06:27.374Z,78.06
2022-08-16T07:08:56.809Z,79.58
2022-08-16T07:11:46.029Z,80.06
2022-08-16T07:14:25.892Z,79.87
2022-08-16T07:16:57.911Z,77.04
2022-08-16T07:20:01.640Z,74.63
2022-08-16T07:22:37.857Z,75.69
2022-08-16T07:25:08.207Z,71.56
2022-08-16T07:27:37.325Z,71.98
2022-08-16T07:30:39.272Z,73.42
2022-08-16T07:32:57.300Z,74.36
2022-08-16T07:35:25.459Z,73.44
2022-08-16T07:37:54.896Z,70.58
2022-08-16T07:40:49.008Z,71.01
2022-08-16T07:43:11.975Z,69.74
2022-08-16T07:45:42.999Z,68.87
2022-08-16T07:48:12.445Z,68.07
2022-08-16T07:50:57.220Z,66.87
2022-08-16T07:53:29.603Z,66.82
2022-08-16T07:56:00.274Z,67.58
2022-08-16T07:58:34.031Z,67.32
2022-08-16T08:01:10.441Z,66.45
2022-08-16T08:03:41.547Z,66.42
2022-08-16T08:06:12.000Z,65.30
2022-08-16T08:08:51.479Z,65.17
2022-08-16T08:11:23.503Z,65.69
2022-08-16T08:13:53.916Z,65.61
2022-08-16T08:16:30.404Z,65.90
2022-08-16T08:19:02.530Z,67.84
2022-08-16T08:21:58.372Z,66.51
2022-08-16T08:24:32.279Z,66.03
2022-08-16T08:27:02.180Z,66.26
2022-08-16T08:29:37.269Z,65.22
2022-08-16T08:32:58.227Z,66.31
2022-08-16T08:35:03.270Z,66.56
2022-08-16T08:37:54.818Z,63.41
2022-08-16T08:40:27.206Z,62.60
2022-08-16T08:42:57.863Z,63.89
2022-08-16T08:45:46.683Z,62.53
2022-08-16T08:48:33.472Z,61.10
2022-08-16T08:51:04.484Z,61.65
2022-08-16T08:53:33.685Z,60.91
2022-08-16T08:56:23.307Z,58.01
2022-08-16T08:59:00.045Z,57.54
2022-08-16T09:01:36.836Z,57.68
2022-08-16T09:04:22.643Z,58.50
2022-08-16T09:06:53.597Z,57.66
2022-08-16T09:09:22.316Z,58.11
2022-08-16T09:12:03.986Z,57.70
2022-08-16T09:14:35.376Z,56.53
2022-08-16T09:17:14.201Z,56.04
2022-08-16T09:19:57.816Z,56.63
2022-08-16T09:22:29.531Z,57.45
2022-08-16T09:25:10.914Z,57.23
2022-08-16T09:27:46.836Z,58.76
2022-08-16T09:30:33.353Z,57.48
2022-08-16T09:33:07.531Z,56.68
2022-08-16T09:35:39.223Z,54.99
2022-08-16T09:38:22.333Z,57.79
2022-08-16T09:41:01.859Z,58.41
2022-08-16T09:44:00.513Z,56.79
2022-08-16T09:46:45.007Z,56.99
2022-08-16T09:49:09.062Z,57.29
2022-08-16T09:51:40.555Z,53.88
2022-08-16T09:54:16.753Z,54.28
2022-08-16T09:56:52.197Z,53.05
2022-08-16T09:59:25.329Z,54.21
2022-08-16T10:01:59.105Z,54.58
2022-08-16T10:04:30.388Z,52.74
2022-08-16T10:07:14.948Z,50.94
2022-08-16T10:09:53.621Z,50.74
2022-08-16T10:12:43.810Z,48.43
2022-08-16T10:15:17.115Z,48.80
2022-08-16T10:18:00.004Z,49.26
2022-08-16T10:20:34.028Z,47.34
2022-08-16T10:23:07.403Z,48.27
2022-08-16T10:27:00.758Z,47.15
2022-08-16T10:28:32.396Z,47.30
2022-08-16T10:31:11.961Z,49.18
2022-08-16T10:33:47.579Z,48.02
2022-08-16T10:36:39.421Z,45.60
2022-08-16T10:39:06.000Z,46.27
2022-08-16T10:41:36.759Z,45.37
2022-08-16T10:44:05.375Z,42.92
2022-08-16T10:46:41.478Z,42.66
2022-08-16T10:49:12.444Z,43.13
2022-08-16T10:52:01.069Z,43.30
2022-08-16T10:54:30.205Z,44.21
2022-08-16T10:56:59.436Z,45.21
2022-08-16T10:59:38.326Z,43.30
2022-08-16T11:02:57.955Z,43.41
2022-08-16T11:05:14.099Z,42.64
2022-08-16T11:07:45.415Z,45.70
2022-08-16T11:19:04.192Z,41.90
2022-08-16T11:21:33.609Z,41.06
2022-08-16T11:24:03.260Z,41.21
2022-08-16T11:29:41.944Z,38.17
2022-08-16T11:32:11.042Z,38.20
2022-08-16T11:35:05.968Z,38.79
2022-08-16T11:38:04.545Z,38.24
2022-08-16T11:40:19.700Z,38.15
2022-08-16T11:43:01.415Z,37.64
2022-08-16T11:45:33.737Z,39.43
2022-08-16T11:48:03.668Z,41.07
2022-08-16T11:50:33.837Z,40.20
2022-08-16T11:53:03.760Z,39.54
2022-08-16T11:55:32.975Z,40.24
2022-08-16T11:58:01.282Z,38.28
2022-08-16T12:00:33.882Z,39.04
2022-08-16T12:03:24.981Z,38.42
2022-08-16T12:06:03.009Z,38.60
2022-08-16T12:08:32.551Z,37.10
2022-08-16T12:11:02.403Z,38.27
2022-08-16T12:13:30.732Z,38.68
2022-08-16T12:15:59.069Z,38.65
2022-08-16T12:18:27.207Z,38.40
2022-08-16T12:20:55.463Z,37.83
2022-08-16T12:23:28.465Z,38.89
2022-08-16T12:25:59.742Z,38.19
2022-08-16T12:28:54.110Z,38.03
2022-08-16T12:31:16.108Z,37.86
2022-08-16T12:33:45.187Z,38.07
2022-08-16T12:36:14.088Z,36.95
2022-08-16T12:38:48.389Z,37.07
2022-08-16T12:41:25.215Z,36.79
2022-08-16T12:43:57.117Z,36.68
2022-08-16T12:46:31.004Z,36.14
2022-08-16T12:48:58.886Z,36.80
2022-08-16T12:51:33.053Z,36.66
2022-08-16T12:54:23.566Z,37.65
2022-08-16T12:56:52.008Z,37.34
2022-08-16T12:59:21.879Z,38.20
2022-08-16T13:01:58.028Z,38.36
2022-08-16T13:04:33.169Z,38.22
2022-08-16T13:09:42.098Z,37.78
2022-08-16T13:12:19.877Z,38.46
2022-08-16T13:14:50.019Z,37.85
2022-08-16T13:17:21.409Z,38.75
2022-08-16T13:20:09.316Z,38.13
2022-08-16T13:22:42.482Z,38.66
2022-08-16T13:25:19.459Z,38.30
2022-08-16T13:28:02.746Z,38.23
2022-08-16T13:30:37.391Z,37.03
2022-08-16T13:33:13.153Z,37.13
2022-08-16T13:35:45.499Z,37.09
2022-08-16T13:38:25.204Z,36.46
2022-08-16T13:40:57.446Z,36.94
2022-08-16T13:43:26.962Z,36.90
2022-08-16T13:45:57.755Z,37.44
2022-08-16T13:48:26.534Z,36.64
2022-08-16T13:51:15.790Z,38.37
2022-08-16T13:53:45.890Z,36.53
2022-08-16T13:56:25.848Z,36.72
2022-08-16T13:59:02.384Z,36.10
2022-08-16T14:01:31.115Z,36.15
2022-08-16T14:04:05.404Z,36.00
2022-08-16T14:06:33.597Z,36.38
2022-08-16T14:09:06.945Z,36.11
2022-08-16T14:11:36.717Z,36.86
2022-08-16T14:14:05.937Z,37.28
2022-08-16T14:16:35.287Z,36.08
2022-08-16T14:19:04.247Z,37.38
2022-08-16T14:21:35.187Z,37.59
2022-08-16T14:24:12.789Z,36.94
2022-08-16T14:26:52.964Z,36.67
2022-08-16T14:29:22.064Z,36.70
2022-08-16T14:31:54.173Z,36.44
2022-08-16T14:34:25.643Z,36.26
2022-08-16T14:36:53.968Z,36.68
2022-08-16T14:39:23.176Z,35.88
2022-08-16T14:41:53.682Z,36.04
2022-08-16T14:44:26.219Z,36.25
2022-08-16T14:46:56.401Z,37.31
2022-08-16T14:49:25.060Z,37.12
2022-08-16T14:51:53.063Z,36.57
2022-08-16T14:54:21.817Z,36.38
2022-08-16T14:56:55.031Z,35.71
2022-08-16T14:59:25.824Z,37.01
2022-08-16T15:01:59.234Z,37.94
2022-08-16T15:04:32.336Z,37.17
2022-08-16T15:07:11.289Z,38.00
2022-08-16T15:09:59.933Z,37.73
2022-08-16T15:12:33.489Z,38.59
2022-08-16T15:15:12.381Z,37.26
2022-08-16T15:17:42.111Z,37.11
2022-08-16T15:20:26.207Z,36.96
2022-08-16T15:22:55.800Z,36.95
2022-08-16T15:25:27.515Z,37.03
2022-08-16T15:27:57.427Z,38.59
2022-08-16T15:30:57.243Z,36.57
2022-08-16T15:33:17.481Z,38.26
2022-08-16T15:35:47.300Z,37.68
2022-08-16T15:38:57.089Z,37.54
2022-08-16T15:41:05.387Z,36.34
2022-08-16T15:43:39.396Z,36.46
2022-08-16T15:46:35.560Z,36.56
2022-08-16T15:49:14.471Z,36.06
2022-08-16T15:51:44.930Z,35.96
2022-08-16T15:54:21.643Z,36.87
2022-08-16T15:57:07.250Z,36.53
2022-08-16T15:59:48.870Z,37.61
2022-08-16T16:02:27.453Z,38.07
2022-08-16T16:04:56.172Z,37.43
2022-08-16T16:07:24.371Z,37.17
2022-08-16T16:09:53.349Z,37.78
2022-08-16T16:12:53.438Z,37.53
2022-08-16T16:15:09.766Z,37.25
2022-08-16T16:17:39.097Z,37.11
2022-08-16T16:20:14.913Z,37.50
2022-08-16T16:22:43.471Z,37.72
2022-08-16T16:25:11.827Z,37.67
2022-08-16T16:27:40.785Z,39.02
2022-08-16T16:30:33.212Z,38.24
2022-08-16T16:32:59.788Z,37.66
2022-08-16T16:35:32.932Z,37.54
2022-08-16T16:38:01.243Z,37.71
2022-08-16T16:40:46.339Z,37.38
2022-08-16T16:43:16.151Z,37.66
2022-08-16T16:45:45.227Z,37.39
2022-08-16T16:48:14.761Z,37.55
2022-08-16T16:50:46.450Z,37.66
2022-08-16T16:53:17.630Z,37.51
2022-08-16T16:55:52.086Z,38.19
2022-08-16T16:58:39.009Z,38.50
2022-08-16T17:01:12.735Z,38.65
2022-08-16T17:03:43.375Z,38.77
2022-08-16T17:06:21.838Z,38.68
2022-08-16T17:08:52.144Z,38.90
2022-08-16T17:11:20.103Z,39.52
2022-08-16T17:13:48.969Z,39.04
2022-08-16T17:16:19.038Z,39.51
2022-08-16T17:19:16.334Z,39.92
2022-08-16T17:21:40.083Z,40.90
2022-08-16T17:24:17.958Z,40.67
2022-08-16T17:26:48.991Z,40.91
2022-08-16T17:29:17.326Z,41.13
2022-08-16T17:31:49.508Z,41.77
2022-08-16T17:34:30.343Z,43.13
2022-08-16T17:37:00.621Z,43.80
2022-08-16T17:39:33.455Z,44.09
2022-08-16T17:42:03.831Z,44.62
2022-08-16T17:44:32.277Z,44.94
2022-08-16T17:47:00.173Z,45.39
2022-08-16T17:49:29.740Z,45.72
2022-08-16T17:51:57.655Z,46.76
2022-08-16T17:54:30.617Z,47.26
2022-08-16T17:57:00.761Z,48.78
2022-08-16T17:59:29.347Z,49.98
2022-08-16T18:01:57.777Z,50.39
2022-08-16T18:04:48.236Z,51.04
2022-08-16T18:07:15.638Z,50.99
2022-08-16T18:09:43.831Z,51.53
2022-08-16T18:12:23.984Z,51.41
2022-08-16T18:15:03.491Z,52.40
2022-08-16T18:17:31.998Z,53.31
2022-08-16T18:20:00.047Z,54.13
2022-08-16T18:22:31.660Z,55.14
2022-08-16T18:24:59.848Z,57.15
2022-08-16T18:27:29.777Z,57.49
2022-08-16T18:29:57.910Z,58.35
2022-08-16T18:32:25.800Z,59.61
2022-08-16T18:34:54.193Z,60.78
2022-08-16T18:37:22.644Z,61.34
2022-08-16T18:39:52.182Z,62.28
2022-08-16T18:42:20.938Z,62.55
2022-08-16T18:44:49.074Z,63.32
2022-08-16T18:47:16.915Z,63.53
2022-08-16T18:49:45.072Z,62.81
2022-08-16T18:52:25.200Z,63.11
2022-08-16T18:55:02.920Z,63.85
2022-08-16T18:57:42.834Z,64.18
2022-08-16T19:00:12.511Z,64.04
2022-08-16T19:02:55.993Z,64.42
2022-08-16T19:05:29.222Z,64.66
2022-08-16T19:07:57.214Z,65.29
2022-08-16T19:10:26.481Z,65.75
2022-08-16T19:12:54.911Z,66.35
2022-08-16T19:15:25.947Z,66.87
2022-08-16T19:17:54.772Z,67.16
2022-08-16T19:20:25.135Z,67.78
2022-08-16T19:23:11.005Z,68.91
2022-08-16T19:25:46.732Z,69.59
2022-08-16T19:28:50.044Z,70.57
2022-08-16T19:31:09.232Z,70.69
2022-08-16T19:33:38.034Z,71.59
2022-08-16T19:36:06.712Z,71.45
2022-08-16T19:38:36.209Z,71.57
2022-08-16T19:41:06.418Z,71.42
2022-08-16T19:43:34.385Z,71.77
2022-08-16T19:46:02.659Z,72.20
2022-08-16T19:48:30.646Z,73.05
2022-08-16T19:50:58.558Z,73.69
2022-08-16T19:53:27.666Z,73.20
2022-08-16T19:55:55.581Z,73.43
2022-08-16T19:58:24.842Z,73.92
2022-08-16T20:00:56.384Z,73.44
2022-08-16T20:03:25.327Z,73.78
2022-08-16T20:05:53.786Z,74.12
2022-08-16T20:08:22.275Z,73.60
2022-08-16T20:10:51.213Z,74.74
2022-08-16T20:13:21.800Z,75.92
2022-08-16T20:15:51.704Z,76.14
2022-08-16T20:18:24.648Z,76.64
2022-08-16T20:20:55.312Z,76.76
2022-08-16T20:23:25.596Z,76.30
2022-08-16T20:25:55.633Z,76.55
2022-08-16T20:28:51.651Z,76.24
2022-08-16T20:31:13.858Z,78.59
2022-08-16T20:33:42.195Z,78.56
2022-08-16T20:36:16.030Z,78.92
2022-08-16T20:38:46.901Z,78.88
2022-08-16T20:41:15.617Z,79.53
2022-08-16T20:43:43.678Z,79.44
2022-08-16T20:46:15.519Z,79.95
2022-08-16T20:48:43.898Z,81.08
2022-08-16T20:51:12.762Z,81.71
2022-08-16T20:53:41.893Z,81.23
2022-08-16T20:56:12.805Z,81.41
2022-08-16T20:58:41.020Z,81.48
2022-08-16T21:01:09.776Z,82.46
2022-08-16T21:03:39.419Z,82.83
2022-08-16T21:06:08.127Z,83.70
2022-08-16T21:08:51.731Z,84.86
2022-08-16T21:11:23.614Z,85.65
2022-08-16T21:13:52.406Z,86.80
2022-08-16T21:16:28.584Z,87.63
2022-08-16T21:18:58.183Z,88.38
2022-08-16T21:21:31.974Z,88.72
2022-08-16T21:24:01.578Z,89.43
2022-08-16T21:26:29.883Z,90.13
2022-08-16T21:28:57.795Z,91.31
2022-08-16T21:31:25.680Z,91.08
2022-08-16T21:33:55.212Z,90.68
2022-08-16T21:36:34.911Z,91.28
2022-08-16T21:39:05.411Z,91.98
2022-08-16T21:41:33.304Z,92.29
2022-08-16T21:44:01.293Z,93.76
2022-08-16T21:46:29.489Z,95.22
2022-08-16T21:48:57.354Z,96.12
2022-08-16T21:51:26.573Z,96.32
2022-08-16T21:53:54.734Z,96.05
2022-08-16T21:56:23.112Z,96.33
2022-08-16T21:58:53.187Z,96.28
2022-08-16T22:01:23.784Z,95.98
2022-08-16T22:04:36.015Z,95.77
2022-08-16T22:06:43.829Z,96.12
2022-08-16T22:09:15.154Z,97.46
2022-08-16T22:11:44.531Z,97.29
2022-08-16T22:14:12.794Z,97.10
2022-08-16T22:16:42.301Z,97.12
2022-08-16T22:19:11.560Z,97.41
2022-08-16T22:21:39.444Z,97.76
2022-08-16T22:24:09.092Z,98.52
2022-08-16T22:26:42.871Z,99.28
2022-08-16T22:29:13.712Z,98.87
2022-08-16T22:31:43.245Z,98.99
2022-08-16T22:34:11.240Z,99.08
2022-08-16T22:36:39.969Z,99.36
2022-08-16T22:39:12.048Z,99.49
2022-08-16T22:41:42.121Z,99.78
2022-08-16T22:44:10.560Z,100.00
2022-08-16T22:46:38.660Z,100.00
2022-08-16T22:49:07.785Z,100.00
2022-08-16T22:51:37.335Z,100.00
2022-08-16T22:54:45.761Z,100.00
2022-08-16T22:56:57.336Z,100.00
2022-08-16T22:59:25.986Z,100.00
2022-08-16T23:01:54.006Z,100.00
2022-08-16T23:04:22.555Z,100.00
2022-08-16T23:06:50.616Z,100.00
2022-08-16T23:09:18.727Z,100.00
2022-08-16T23:11:46.878Z,100.00
2022-08-16T23:14:16.572Z,100.00
2022-08-16T23:16:47.051Z,100.00
2022-08-16T23:19:17.004Z,100.00
2022-08-16T23:21:48.899Z,100.00
2022-08-16T23:24:20.462Z,100.00
2022-08-16T23:26:49.498Z,100.00
2022-08-16T23:29:24.368Z,100.00
2022-08-16T23:31:56.694Z,100.00
2022-08-16T23:34:26.782Z,100.00
2022-08-16T23:36:54.864Z,100.00
2022-08-16T23:39:23.241Z,100.00
2022-08-16T23:41:51.948Z,100.00
2022-08-16T23:44:55.823Z,100.00
2022-08-16T23:47:09.632Z,100.00
2022-08-16T23:50:01.794Z,100.00
2022-08-16T23:52:53.247Z,100.00
2022-08-16T23:55:16.376Z,100.00
2022-08-16T23:57:46.192Z,100.00
